This is the latest recevied weather packets stored in our database for station/object Sauldorf. If no packets are shown the sender has not sent any weather packets the latest 10 day(s).
| Time | Temp. | Humidity | Pressure | Rain* | Wind** | Luminosity | Snow |
|---|---|---|---|---|---|---|---|
| 1778227331 | 8.33° C | 94% | 1016.5 hPa | 0 mm | - | - | - |
| 1778225532 | 7.78° C | 94% | 1016.2 hPa | 0 mm | - | - | - |
| 1778223731 | 7.22° C | 94% | 1016.1 hPa | 0 mm | - | - | - |
| 1778221931 | 7.22° C | 94% | 1016.2 hPa | 0 mm | - | - | - |
| 1778220131 | 6.67° C | 94% | 1016 hPa | 0 mm | - | - | - |
| 1778218331 | 6.67° C | 94% | 1015.8 hPa | 0 mm | - | - | - |
| 1778216531 | 6.11° C | 94% | 1015.6 hPa | 0 mm | - | - | - |
| 1778214731 | 5.56° C | 93% | 1015.2 hPa | 0 mm | - | - | - |
| 1778212932 | 5.56° C | 92% | 1015.1 hPa | 0 mm | - | - | - |
| 1778211131 | 6.11° C | 92% | 1015.1 hPa | 0 mm | - | - | - |
| 1778209331 | 6.11° C | 92% | 1015 hPa | 0 mm | - | - | - |
| 1778207531 | 6.11° C | 92% | 1015.1 hPa | 0 mm | - | - | - |
| 1778205731 | 6.67° C | 92% | 1015.1 hPa | 0 mm | - | - | - |
| 1778203931 | 6.67° C | 91% | 1015.1 hPa | 0 mm | - | - | - |
| 1778202131 | 6.67° C | 91% | 1015.1 hPa | 0 mm | - | - | - |
| 1778200330 | 7.22° C | 90% | 1015.4 hPa | 0 mm | - | - | - |
| 1778198529 | 7.78° C | 90% | 1015.3 hPa | 0 mm | - | - | - |
| 1778196729 | 7.78° C | 89% | 1015.5 hPa | 0 mm | - | - | - |
| 1778194935 | 8.33° C | 88% | 1016.1 hPa | 0 mm | - | - | - |
| 1778193130 | 8.89° C | 88% | 1016.1 hPa | 0 mm | - | - | - |
| 1778191329 | 9.44° C | 87% | 1016.1 hPa | 0 mm | - | - | - |
| 1778189531 | 9.44° C | 86% | 1016 hPa | 4.32 mm | - | - | - |
| 1778187729 | 10° C | 85% | 1015.9 hPa | 4.32 mm | - | - | - |
| 1778185929 | 10° C | 83% | 1015.8 hPa | 4.32 mm | - | - | - |
| 1778184129 | 10.56° C | 81% | 1015.6 hPa | 4.32 mm | - | - | - |
* Rain since midnight (hover to see other rain measurements)
** Current wind speed in m/s (hover to see current wind gust speed)